Wanamaker, Indiana
Current Conditions -  °F | °C
As of 8:55 AM on Friday 31 Oct 2014 (Local Time) from KMQJ Reporting Station
Broken Clouds Broken Clouds  
Wind Chill: 40°   Ceiling: 3500
Heat Index: 45°   Visibility: 10mi
Dew Point: 34°   Wind: 9mph
Humidity: 66%   Direction: 300°WNW
Pressure: 29.98"   Gusts: NA
Location:  39.7221°N, 86.0007°W
Report Text: KMQJ 311255Z AUTO 30008KT 10SM SCT007 BKN035 BKN055 07/01 A2998 RMK AO1
Loading
Personal Weather Stations






























Interactive Weather Map
Tropical Storm Tracking
New forecast layout! Learn more

10-Day Weather Forecast

Advertisements
Track Severe Weather on mobile